createdAt,value
2022-10-23T00:05:22.459Z,976.02
2022-10-23T00:10:54.536Z,975.99
2022-10-23T00:16:26.060Z,975.96
2022-10-23T00:21:57.710Z,975.97
2022-10-23T00:27:29.414Z,975.88
2022-10-23T00:33:07.612Z,975.58
2022-10-23T00:38:39.138Z,975.64
2022-10-23T00:44:11.135Z,975.63
2022-10-23T00:49:43.654Z,975.54
2022-10-23T00:55:14.509Z,975.48
2022-10-23T01:00:46.228Z,975.77
2022-10-23T01:06:28.347Z,976.0
2022-10-23T01:11:49.915Z,976.21
2022-10-23T01:17:22.370Z,976.2
2022-10-23T01:22:53.822Z,976.12
2022-10-23T01:28:25.351Z,976.08
2022-10-23T01:34:03.539Z,976.16
2022-10-23T01:39:35.295Z,976.16
2022-10-23T01:45:06.999Z,975.99
2022-10-23T01:50:38.633Z,976.02
2022-10-23T01:56:10.522Z,976.21
2022-10-23T02:01:42.797Z,976.09
2022-10-23T02:07:13.810Z,975.98
2022-10-23T02:12:45.670Z,975.88
2022-10-23T02:18:17.520Z,976.15
2022-10-23T02:23:56.189Z,975.85
2022-10-23T02:29:20.813Z,976.16
2022-10-23T02:34:56.758Z,975.73
2022-10-23T02:40:28.566Z,975.78
2022-10-23T02:46:00.247Z,975.76
2022-10-23T02:51:32.165Z,975.75
2022-10-23T02:57:03.733Z,975.68
2022-10-23T03:02:35.482Z,975.77
2022-10-23T03:08:07.370Z,975.81
2022-10-23T03:13:39.002Z,975.63
2022-10-23T03:19:13.251Z,975.73
2022-10-23T03:24:42.374Z,975.69
2022-10-23T03:30:14.033Z,975.41
2022-10-23T03:35:50.499Z,975.43
2022-10-23T03:41:21.837Z,975.49
2022-10-23T03:46:53.668Z,975.85
2022-10-23T03:52:25.485Z,975.96
2022-10-23T03:57:57.159Z,975.76
2022-10-23T04:03:28.700Z,975.83
2022-10-23T04:09:00.734Z,975.98
2022-10-23T04:14:32.348Z,975.88
2022-10-23T04:20:04.059Z,975.78
2022-10-23T04:25:35.946Z,975.75
2022-10-23T04:31:07.644Z,975.92
2022-10-23T04:36:43.439Z,975.71
2022-10-23T04:42:15.570Z,975.84
2022-10-23T04:47:47.086Z,975.67
2022-10-23T04:53:18.659Z,975.73
2022-10-23T04:58:50.422Z,975.69
2022-10-23T05:04:22.574Z,975.68
2022-10-23T05:09:53.845Z,975.91
2022-10-23T05:15:25.537Z,975.83
2022-10-23T05:20:57.304Z,976.12
2022-10-23T05:26:29.054Z,976.04
2022-10-23T05:32:00.966Z,975.79
2022-10-23T05:37:36.998Z,975.72
2022-10-23T05:43:08.718Z,975.99
2022-10-23T05:48:40.490Z,975.67
2022-10-23T05:54:12.014Z,975.72
2022-10-23T05:59:43.775Z,975.66
2022-10-23T06:05:15.457Z,975.63
2022-10-23T06:10:47.345Z,975.69
2022-10-23T06:16:19.070Z,975.52
2022-10-23T06:21:50.631Z,975.79
2022-10-23T06:27:22.537Z,975.83
2022-10-23T06:32:54.034Z,975.57
2022-10-23T06:38:30.254Z,975.79
2022-10-23T06:44:02.118Z,975.8
2022-10-23T06:49:33.885Z,975.94
2022-10-23T06:55:05.626Z,976.12
2022-10-23T07:00:37.356Z,975.89
2022-10-23T07:06:09.017Z,976.07
2022-10-23T07:11:40.485Z,976.28
2022-10-23T07:17:12.292Z,976.26
2022-10-23T07:22:45.755Z,976.31
2022-10-23T07:28:15.745Z,976.38
2022-10-23T07:33:47.476Z,976.55
2022-10-23T07:39:23.553Z,976.97
2022-10-23T07:44:55.401Z,977.21
2022-10-23T07:50:27.038Z,976.97
2022-10-23T07:55:58.795Z,977.12
2022-10-23T08:01:30.757Z,978.06
2022-10-23T08:07:02.314Z,977.48
2022-10-23T08:12:33.966Z,977.85
2022-10-23T08:18:06.087Z,977.84
2022-10-23T08:23:37.769Z,978.2
2022-10-23T08:29:09.162Z,978.14
2022-10-23T08:34:40.992Z,978.28
2022-10-23T08:40:16.901Z,977.83
2022-10-23T08:45:48.659Z,977.77
2022-10-23T08:51:20.347Z,977.7
2022-10-23T08:56:52.106Z,977.59
2022-10-23T09:02:24.120Z,977.62
2022-10-23T09:07:55.488Z,977.45
2022-10-23T09:13:27.275Z,977.45
2022-10-23T09:18:59.142Z,977.58
2022-10-23T09:24:30.867Z,977.39
2022-10-23T09:30:02.874Z,978.38
2022-10-23T09:35:34.546Z,978.37
2022-10-23T09:41:10.533Z,977.94
2022-10-23T09:46:42.508Z,977.67
2022-10-23T09:52:15.966Z,978.1
2022-10-23T09:57:48.431Z,977.7
2022-10-23T10:03:19.469Z,977.74
2022-10-23T10:08:51.061Z,977.9
2022-10-23T10:14:22.766Z,978.33
2022-10-23T10:19:54.742Z,978.06
2022-10-23T10:25:26.362Z,977.89
2022-10-23T10:30:57.994Z,977.87
2022-10-23T10:36:29.801Z,978.03
2022-10-23T10:42:07.774Z,978.01
2022-10-23T10:47:39.458Z,977.28
2022-10-23T10:53:11.309Z,977.49
2022-10-23T10:58:43.113Z,977.18
2022-10-23T11:04:14.802Z,977.73
2022-10-23T11:09:46.437Z,977.22
2022-10-23T11:15:18.209Z,977.03
2022-10-23T11:20:50.037Z,976.92
2022-10-23T11:26:21.683Z,976.82
2022-10-23T11:31:53.406Z,976.54
2022-10-23T11:37:25.064Z,976.42
2022-10-23T11:43:01.085Z,976.05
2022-10-23T11:48:32.846Z,975.66
2022-10-23T11:54:04.549Z,975.77
2022-10-23T11:59:36.374Z,975.94
2022-10-23T12:05:08.095Z,975.66
2022-10-23T12:10:39.955Z,975.62
2022-10-23T12:16:11.583Z,975.45
2022-10-23T12:21:43.406Z,975.5
2022-10-23T12:27:15.046Z,975.77
2022-10-23T12:32:47.184Z,975.97
2022-10-23T12:38:18.372Z,975.63
2022-10-23T12:43:54.574Z,976.05
2022-10-23T12:49:26.256Z,975.59
2022-10-23T12:54:58.710Z,975.67
2022-10-23T13:00:30.129Z,975.67
2022-10-23T13:06:01.632Z,975.69
2022-10-23T13:11:33.174Z,975.15
2022-10-23T13:17:04.882Z,975.56
2022-10-23T13:22:36.745Z,975.37
2022-10-23T13:28:08.327Z,975.16
2022-10-23T13:33:40.210Z,975.05
2022-10-23T13:39:11.822Z,974.94
2022-10-23T13:44:49.874Z,974.76
2022-10-23T13:50:21.610Z,974.69
2022-10-23T13:55:59.217Z,974.38
2022-10-23T14:01:25.627Z,974.13
2022-10-23T14:06:57.617Z,973.63
2022-10-23T14:12:28.981Z,973.51
2022-10-23T14:18:08.552Z,973.61
2022-10-23T14:23:32.521Z,973.51
2022-10-23T14:29:23.994Z,973.12
2022-10-23T14:34:35.974Z,972.91
2022-10-23T14:40:07.745Z,972.9
2022-10-23T14:45:44.028Z,972.89
2022-10-23T14:51:16.077Z,972.82
2022-10-23T14:56:47.507Z,972.65
2022-10-23T15:02:19.436Z,972.58
2022-10-23T15:07:50.866Z,972.54
2022-10-23T15:13:22.830Z,972.27
2022-10-23T15:18:55.094Z,972.09
2022-10-23T15:24:26.438Z,972.24
2022-10-23T15:29:58.097Z,972.12
2022-10-23T15:35:29.881Z,972.42
2022-10-23T15:41:01.552Z,972.05
2022-10-23T15:46:39.815Z,971.35
2022-10-23T15:52:11.856Z,971.84
2022-10-23T15:57:43.410Z,972.11
2022-10-23T16:03:15.848Z,971.71
2022-10-23T16:08:47.592Z,971.67
2022-10-23T16:14:20.042Z,971.26
2022-10-23T16:19:51.745Z,971.36
2022-10-23T16:25:23.751Z,971.53
2022-10-23T16:30:55.282Z,971.45
2022-10-23T16:36:27.106Z,971.44
2022-10-23T16:41:58.945Z,971.13
2022-10-23T16:47:35.089Z,971.34
2022-10-23T16:53:06.949Z,971.45
2022-10-23T16:58:38.547Z,971.44
2022-10-23T17:04:10.166Z,971.69
2022-10-23T17:09:41.954Z,971.77
2022-10-23T17:15:13.769Z,972.25
2022-10-23T17:20:45.610Z,972.1
2022-10-23T17:26:17.118Z,972.43
2022-10-23T17:31:49.013Z,972.57
2022-10-23T17:37:20.869Z,972.47
2022-10-23T17:42:52.549Z,972.28
2022-10-23T17:48:30.654Z,972.1
2022-10-23T17:54:02.289Z,971.7
2022-10-23T17:59:34.037Z,971.85
2022-10-23T18:05:05.676Z,972.05
2022-10-23T18:10:37.545Z,972.26
2022-10-23T18:16:09.314Z,972.4
2022-10-23T18:21:41.188Z,972.63
2022-10-23T18:27:12.766Z,972.49
2022-10-23T18:32:45.320Z,971.98
2022-10-23T18:38:16.083Z,972.22
2022-10-23T18:43:47.752Z,972.8
2022-10-23T18:49:23.974Z,973.1
2022-10-23T18:54:55.586Z,973.17
2022-10-23T19:00:27.518Z,973.01
2022-10-23T19:05:59.270Z,972.92
2022-10-23T19:11:30.870Z,972.89
2022-10-23T19:17:02.622Z,972.74
2022-10-23T19:22:34.457Z,972.88
2022-10-23T19:28:06.068Z,972.82
2022-10-23T19:33:37.966Z,972.78
2022-10-23T19:39:09.495Z,972.51
2022-10-23T19:44:41.434Z,972.67
2022-10-23T19:50:19.641Z,972.79
2022-10-23T19:55:51.198Z,972.8
2022-10-23T20:01:23.323Z,972.67
2022-10-23T20:06:54.955Z,972.57
2022-10-23T20:12:26.297Z,972.76
2022-10-23T20:17:58.037Z,972.48
2022-10-23T20:23:30.123Z,972.43
2022-10-23T20:29:01.861Z,972.61
2022-10-23T20:34:33.379Z,972.26
2022-10-23T20:40:05.142Z,972.42
2022-10-23T20:45:36.778Z,972.51
2022-10-23T20:51:12.917Z,972.0
2022-10-23T20:56:44.656Z,972.36
2022-10-23T21:02:16.803Z,972.66
2022-10-23T21:07:47.981Z,972.59
2022-10-23T21:13:20.678Z,972.7
2022-10-23T21:18:52.221Z,972.58
2022-10-23T21:24:23.988Z,972.5
2022-10-23T21:29:55.662Z,972.59
2022-10-23T21:35:30.708Z,972.84
2022-10-23T21:40:59.251Z,972.67
2022-10-23T21:46:30.860Z,972.62
2022-10-23T21:52:06.925Z,972.66
2022-10-23T21:57:38.714Z,972.68
2022-10-23T22:03:10.347Z,972.36
2022-10-23T22:08:42.633Z,972.49
2022-10-23T22:14:13.833Z,972.31
2022-10-23T22:19:45.542Z,972.12
2022-10-23T22:25:17.522Z,972.11
2022-10-23T22:30:49.069Z,972.17
2022-10-23T22:36:20.919Z,972.07
2022-10-23T22:41:52.546Z,971.72
2022-10-23T22:47:24.399Z,971.77
2022-10-23T22:53:00.286Z,971.86
2022-10-23T22:58:32.071Z,971.68
2022-10-23T23:04:39.114Z,971.52
2022-10-23T23:09:35.635Z,971.41
2022-10-23T23:15:07.538Z,971.38
2022-10-23T23:20:38.926Z,971.39
2022-10-23T23:26:10.666Z,971.5
2022-10-23T23:31:42.594Z,971.44
2022-10-23T23:37:14.075Z,971.39
2022-10-23T23:42:47.037Z,971.25
2022-10-23T23:48:17.590Z,971.46
2022-10-23T23:53:53.698Z,971.36
2022-10-23T23:59:25.574Z,971.27
